sensor_id;sensor_type;location;lat;lon;timestamp;P1;durP1;ratioP1;P2;durP2;ratioP2
34196;SDS011;36594;45.192;5.722;2022-12-17T00:01:55;1.00;;;1.00;;
34196;SDS011;36594;45.192;5.722;2022-12-17T00:05:01;1.10;;;1.10;;
34196;SDS011;36594;45.192;5.722;2022-12-17T00:08:00;0.90;;;0.90;;
34196;SDS011;36594;45.192;5.722;2022-12-17T00:11:07;1.00;;;1.00;;
34196;SDS011;36594;45.192;5.722;2022-12-17T00:14:13;0.98;;;0.98;;
34196;SDS011;36594;45.192;5.722;2022-12-17T00:17:19;1.10;;;1.00;;
34196;SDS011;36594;45.192;5.722;2022-12-17T00:20:25;1.10;;;1.10;;
34196;SDS011;36594;45.192;5.722;2022-12-17T00:23:32;1.00;;;1.00;;
34196;SDS011;36594;45.192;5.722;2022-12-17T00:26:38;1.40;;;1.10;;
34196;SDS011;36594;45.192;5.722;2022-12-17T00:29:45;1.05;;;1.05;;
34196;SDS011;36594;45.192;5.722;2022-12-17T00:32:51;1.00;;;1.00;;
34196;SDS011;36594;45.192;5.722;2022-12-17T00:35:58;1.17;;;1.17;;
34196;SDS011;36594;45.192;5.722;2022-12-17T00:39:04;1.02;;;1.02;;
34196;SDS011;36594;45.192;5.722;2022-12-17T00:42:10;1.20;;;1.20;;
34196;SDS011;36594;45.192;5.722;2022-12-17T00:45:17;1.00;;;1.00;;
34196;SDS011;36594;45.192;5.722;2022-12-17T00:48:23;1.22;;;1.12;;
34196;SDS011;36594;45.192;5.722;2022-12-17T00:51:30;1.02;;;1.02;;
34196;SDS011;36594;45.192;5.722;2022-12-17T00:54:36;1.50;;;1.10;;
34196;SDS011;36594;45.192;5.722;2022-12-17T00:57:42;1.12;;;1.12;;
34196;SDS011;36594;45.192;5.722;2022-12-17T01:00:48;1.00;;;1.00;;
34196;SDS011;36594;45.192;5.722;2022-12-17T01:03:54;1.25;;;1.10;;
34196;SDS011;36594;45.192;5.722;2022-12-17T01:07:00;1.10;;;1.00;;
34196;SDS011;36594;45.192;5.722;2022-12-17T01:10:07;1.00;;;1.00;;
34196;SDS011;36594;45.192;5.722;2022-12-17T01:13:14;1.30;;;1.20;;
34196;SDS011;36594;45.192;5.722;2022-12-17T01:16:21;1.17;;;1.10;;
34196;SDS011;36594;45.192;5.722;2022-12-17T01:19:28;0.90;;;0.90;;
34196;SDS011;36594;45.192;5.722;2022-12-17T01:22:34;0.90;;;0.90;;
34196;SDS011;36594;45.192;5.722;2022-12-17T01:25:40;1.10;;;1.10;;
34196;SDS011;36594;45.192;5.722;2022-12-17T01:28:46;1.02;;;1.02;;
34196;SDS011;36594;45.192;5.722;2022-12-17T01:31:53;1.15;;;1.15;;
34196;SDS011;36594;45.192;5.722;2022-12-17T01:34:59;1.00;;;1.00;;
34196;SDS011;36594;45.192;5.722;2022-12-17T01:38:16;1.15;;;1.15;;
34196;SDS011;36594;45.192;5.722;2022-12-17T01:41:07;1.95;;;1.17;;
34196;SDS011;36594;45.192;5.722;2022-12-17T01:47:56;1.12;;;1.10;;
34196;SDS011;36594;45.192;5.722;2022-12-17T01:51:06;1.00;;;1.00;;
34196;SDS011;36594;45.192;5.722;2022-12-17T01:54:14;1.12;;;1.12;;
34196;SDS011;36594;45.192;5.722;2022-12-17T01:57:22;1.20;;;1.10;;
34196;SDS011;36594;45.192;5.722;2022-12-17T02:00:29;1.20;;;1.20;;
34196;SDS011;36594;45.192;5.722;2022-12-17T02:03:36;1.00;;;1.00;;
34196;SDS011;36594;45.192;5.722;2022-12-17T02:06:50;1.15;;;1.12;;
34196;SDS011;36594;45.192;5.722;2022-12-17T17:28:35;2.47;;;2.27;;
34196;SDS011;36594;45.192;5.722;2022-12-17T17:31:25;2.50;;;2.30;;
34196;SDS011;36594;45.192;5.722;2022-12-17T17:34:14;2.35;;;2.25;;
34196;SDS011;36594;45.192;5.722;2022-12-17T17:37:02;2.40;;;2.20;;
34196;SDS011;36594;45.192;5.722;2022-12-17T17:39:51;2.12;;;2.02;;
34196;SDS011;36594;45.192;5.722;2022-12-17T17:42:39;2.13;;;2.00;;
34196;SDS011;36594;45.192;5.722;2022-12-17T17:45:27;2.10;;;1.95;;
34196;SDS011;36594;45.192;5.722;2022-12-17T17:48:16;2.30;;;2.10;;
34196;SDS011;36594;45.192;5.722;2022-12-17T17:51:06;2.25;;;2.05;;
34196;SDS011;36594;45.192;5.722;2022-12-17T17:54:03;2.20;;;2.00;;
34196;SDS011;36594;45.192;5.722;2022-12-17T17:56:52;2.23;;;2.13;;
34196;SDS011;36594;45.192;5.722;2022-12-17T17:59:41;2.20;;;2.00;;
34196;SDS011;36594;45.192;5.722;2022-12-17T18:02:31;2.00;;;1.90;;
34196;SDS011;36594;45.192;5.722;2022-12-17T18:05:19;2.00;;;1.90;;
34196;SDS011;36594;45.192;5.722;2022-12-17T18:08:07;2.10;;;2.00;;
34196;SDS011;36594;45.192;5.722;2022-12-17T18:10:57;1.87;;;1.77;;
34196;SDS011;36594;45.192;5.722;2022-12-17T18:13:47;1.87;;;1.77;;
34196;SDS011;36594;45.192;5.722;2022-12-17T18:16:45;2.33;;;2.10;;
34196;SDS011;36594;45.192;5.722;2022-12-17T18:19:35;1.80;;;1.70;;
34196;SDS011;36594;45.192;5.722;2022-12-17T18:22:23;1.90;;;1.80;;
34196;SDS011;36594;45.192;5.722;2022-12-17T18:25:11;1.82;;;1.72;;
34196;SDS011;36594;45.192;5.722;2022-12-17T18:28:00;2.08;;;1.92;;
34196;SDS011;36594;45.192;5.722;2022-12-17T18:30:48;2.00;;;1.90;;
34196;SDS011;36594;45.192;5.722;2022-12-17T18:33:38;2.10;;;1.90;;
34196;SDS011;36594;45.192;5.722;2022-12-17T18:36:29;2.00;;;1.90;;
34196;SDS011;36594;45.192;5.722;2022-12-17T18:39:20;2.02;;;1.92;;
34196;SDS011;36594;45.192;5.722;2022-12-17T18:42:10;2.00;;;1.90;;
34196;SDS011;36594;45.192;5.722;2022-12-17T18:45:17;1.95;;;1.85;;
34196;SDS011;36594;45.192;5.722;2022-12-17T18:48:06;1.87;;;1.77;;
34196;SDS011;36594;45.192;5.722;2022-12-17T18:50:55;2.20;;;1.95;;
34196;SDS011;36594;45.192;5.722;2022-12-17T18:53:42;1.90;;;1.80;;
34196;SDS011;36594;45.192;5.722;2022-12-17T18:56:30;2.00;;;1.85;;
34196;SDS011;36594;45.192;5.722;2022-12-17T18:59:21;2.37;;;1.80;;
34196;SDS011;36594;45.192;5.722;2022-12-17T19:02:12;2.27;;;1.95;;
34196;SDS011;36594;45.192;5.722;2022-12-17T19:05:01;2.10;;;1.90;;
34196;SDS011;36594;45.192;5.722;2022-12-17T19:07:49;2.63;;;1.70;;
34196;SDS011;36594;45.192;5.722;2022-12-17T19:10:38;2.12;;;2.00;;
34196;SDS011;36594;45.192;5.722;2022-12-17T19:13:27;1.80;;;1.70;;
34196;SDS011;36594;45.192;5.722;2022-12-17T19:16:17;1.90;;;1.80;;
34196;SDS011;36594;45.192;5.722;2022-12-17T19:19:10;1.90;;;1.80;;
34196;SDS011;36594;45.192;5.722;2022-12-17T19:21:59;1.80;;;1.70;;
34196;SDS011;36594;45.192;5.722;2022-12-17T19:24:49;3.10;;;1.92;;
34196;SDS011;36594;45.192;5.722;2022-12-17T19:27:37;1.90;;;1.80;;
34196;SDS011;36594;45.192;5.722;2022-12-17T19:30:25;1.95;;;1.80;;
34196;SDS011;36594;45.192;5.722;2022-12-17T19:33:13;1.82;;;1.72;;
34196;SDS011;36594;45.192;5.722;2022-12-17T19:36:03;1.80;;;1.70;;
34196;SDS011;36594;45.192;5.722;2022-12-17T19:38:54;1.72;;;1.62;;
34196;SDS011;36594;45.192;5.722;2022-12-17T19:41:45;2.52;;;1.82;;
34196;SDS011;36594;45.192;5.722;2022-12-17T19:44:35;1.80;;;1.70;;
34196;SDS011;36594;45.192;5.722;2022-12-17T19:47:24;2.22;;;2.02;;
34196;SDS011;36594;45.192;5.722;2022-12-17T19:50:14;2.30;;;2.17;;
34196;SDS011;36594;45.192;5.722;2022-12-17T19:53:02;2.00;;;1.90;;
34196;SDS011;36594;45.192;5.722;2022-12-17T19:55:50;1.95;;;1.85;;
34196;SDS011;36594;45.192;5.722;2022-12-17T19:58:41;1.87;;;1.70;;
34196;SDS011;36594;45.192;5.722;2022-12-17T20:01:32;2.50;;;2.15;;
34196;SDS011;36594;45.192;5.722;2022-12-17T20:04:22;2.22;;;2.02;;
34196;SDS011;36594;45.192;5.722;2022-12-17T20:07:10;2.20;;;2.10;;
34196;SDS011;36594;45.192;5.722;2022-12-17T20:09:59;2.17;;;2.08;;
34196;SDS011;36594;45.192;5.722;2022-12-17T20:12:48;2.25;;;2.05;;
34196;SDS011;36594;45.192;5.722;2022-12-17T20:15:36;2.17;;;1.98;;
34196;SDS011;36594;45.192;5.722;2022-12-17T20:18:24;2.90;;;2.23;;
34196;SDS011;36594;45.192;5.722;2022-12-17T20:21:13;2.40;;;2.08;;
34196;SDS011;36594;45.192;5.722;2022-12-17T20:24:01;2.40;;;2.20;;
34196;SDS011;36594;45.192;5.722;2022-12-17T20:26:51;2.30;;;2.10;;
34196;SDS011;36594;45.192;5.722;2022-12-17T20:29:40;2.22;;;2.02;;
34196;SDS011;36594;45.192;5.722;2022-12-17T20:32:29;2.45;;;2.25;;
34196;SDS011;36594;45.192;5.722;2022-12-17T20:35:18;2.15;;;2.00;;
34196;SDS011;36594;45.192;5.722;2022-12-17T20:38:06;2.22;;;2.05;;
34196;SDS011;36594;45.192;5.722;2022-12-17T20:40:55;2.77;;;2.20;;
34196;SDS011;36594;45.192;5.722;2022-12-17T20:43:44;2.62;;;2.42;;
34196;SDS011;36594;45.192;5.722;2022-12-17T20:46:33;2.50;;;2.30;;
34196;SDS011;36594;45.192;5.722;2022-12-17T20:49:26;2.45;;;2.25;;
34196;SDS011;36594;45.192;5.722;2022-12-17T20:52:15;2.47;;;2.27;;
34196;SDS011;36594;45.192;5.722;2022-12-17T20:55:04;2.50;;;2.30;;
34196;SDS011;36594;45.192;5.722;2022-12-17T20:57:53;2.55;;;2.35;;
34196;SDS011;36594;45.192;5.722;2022-12-17T21:00:41;2.23;;;2.03;;
34196;SDS011;36594;45.192;5.722;2022-12-17T21:03:30;2.47;;;2.20;;
34196;SDS011;36594;45.192;5.722;2022-12-17T21:06:19;2.50;;;2.12;;
34196;SDS011;36594;45.192;5.722;2022-12-17T21:09:09;2.45;;;2.20;;
34196;SDS011;36594;45.192;5.722;2022-12-17T21:11:59;2.85;;;2.17;;
34196;SDS011;36594;45.192;5.722;2022-12-17T21:14:47;2.50;;;2.30;;
34196;SDS011;36594;45.192;5.722;2022-12-17T21:17:35;2.20;;;2.00;;
34196;SDS011;36594;45.192;5.722;2022-12-17T21:20:24;2.50;;;2.30;;
34196;SDS011;36594;45.192;5.722;2022-12-17T21:23:12;2.20;;;2.00;;
34196;SDS011;36594;45.192;5.722;2022-12-17T21:26:09;3.70;;;2.20;;
34196;SDS011;36594;45.192;5.722;2022-12-17T21:28:55;2.40;;;2.20;;
34196;SDS011;36594;45.192;5.722;2022-12-17T21:31:44;2.25;;;2.10;;
34196;SDS011;36594;45.192;5.722;2022-12-17T21:34:34;2.40;;;2.20;;
34196;SDS011;36594;45.192;5.722;2022-12-17T21:37:23;2.33;;;2.12;;
34196;SDS011;36594;45.192;5.722;2022-12-17T21:40:11;3.33;;;2.20;;
34196;SDS011;36594;45.192;5.722;2022-12-17T21:43:00;2.40;;;2.20;;
34196;SDS011;36594;45.192;5.722;2022-12-17T21:45:54;2.25;;;2.05;;
34196;SDS011;36594;45.192;5.722;2022-12-17T21:48:40;2.40;;;2.20;;
34196;SDS011;36594;45.192;5.722;2022-12-17T21:51:29;2.12;;;2.02;;
34196;SDS011;36594;45.192;5.722;2022-12-17T21:54:18;2.52;;;2.33;;
34196;SDS011;36594;45.192;5.722;2022-12-17T21:57:07;2.00;;;1.90;;
34196;SDS011;36594;45.192;5.722;2022-12-17T21:59:55;2.40;;;2.20;;
34196;SDS011;36594;45.192;5.722;2022-12-17T22:02:44;3.02;;;2.65;;
34196;SDS011;36594;45.192;5.722;2022-12-17T22:05:36;2.12;;;2.02;;
34196;SDS011;36594;45.192;5.722;2022-12-17T22:08:25;2.60;;;2.40;;
34196;SDS011;36594;45.192;5.722;2022-12-17T22:11:15;2.30;;;2.10;;
34196;SDS011;36594;45.192;5.722;2022-12-17T22:14:05;2.27;;;2.05;;
34196;SDS011;36594;45.192;5.722;2022-12-17T22:16:57;2.58;;;2.10;;
34196;SDS011;36594;45.192;5.722;2022-12-17T22:19:46;2.35;;;2.25;;
34196;SDS011;36594;45.192;5.722;2022-12-17T22:22:34;2.80;;;2.47;;
34196;SDS011;36594;45.192;5.722;2022-12-17T22:25:22;2.40;;;2.30;;
34196;SDS011;36594;45.192;5.722;2022-12-17T22:28:11;2.45;;;2.25;;
34196;SDS011;36594;45.192;5.722;2022-12-17T22:31:09;2.67;;;2.25;;
34196;SDS011;36594;45.192;5.722;2022-12-17T22:34:11;2.70;;;2.37;;
34196;SDS011;36594;45.192;5.722;2022-12-17T22:37:00;3.15;;;2.20;;
34196;SDS011;36594;45.192;5.722;2022-12-17T22:39:48;3.17;;;2.25;;
34196;SDS011;36594;45.192;5.722;2022-12-17T22:42:36;4.00;;;2.30;;
34196;SDS011;36594;45.192;5.722;2022-12-17T22:45:43;4.30;;;2.40;;
34196;SDS011;36594;45.192;5.722;2022-12-17T22:48:31;2.58;;;2.37;;
34196;SDS011;36594;45.192;5.722;2022-12-17T22:51:21;2.50;;;2.30;;
34196;SDS011;36594;45.192;5.722;2022-12-17T22:54:11;2.58;;;2.37;;
34196;SDS011;36594;45.192;5.722;2022-12-17T22:57:00;2.60;;;2.40;;
34196;SDS011;36594;45.192;5.722;2022-12-17T22:59:48;2.58;;;2.30;;
34196;SDS011;36594;45.192;5.722;2022-12-17T23:02:37;3.62;;;2.40;;
34196;SDS011;36594;45.192;5.722;2022-12-17T23:05:26;2.10;;;2.00;;
34196;SDS011;36594;45.192;5.722;2022-12-17T23:08:15;2.17;;;2.00;;
34196;SDS011;36594;45.192;5.722;2022-12-17T23:11:07;2.42;;;2.22;;
34196;SDS011;36594;45.192;5.722;2022-12-17T23:13:58;2.85;;;2.40;;
34196;SDS011;36594;45.192;5.722;2022-12-17T23:16:46;2.27;;;2.15;;
34196;SDS011;36594;45.192;5.722;2022-12-17T23:19:35;2.50;;;2.30;;
34196;SDS011;36594;45.192;5.722;2022-12-17T23:22:23;2.40;;;2.20;;
34196;SDS011;36594;45.192;5.722;2022-12-17T23:25:12;2.87;;;2.20;;
34196;SDS011;36594;45.192;5.722;2022-12-17T23:28:01;2.50;;;2.30;;
34196;SDS011;36594;45.192;5.722;2022-12-17T23:30:50;2.27;;;2.08;;
34196;SDS011;36594;45.192;5.722;2022-12-17T23:33:39;2.20;;;2.10;;
34196;SDS011;36594;45.192;5.722;2022-12-17T23:36:27;2.10;;;2.00;;
34196;SDS011;36594;45.192;5.722;2022-12-17T23:39:16;2.50;;;2.30;;
34196;SDS011;36594;45.192;5.722;2022-12-17T23:42:04;2.05;;;1.85;;
34196;SDS011;36594;45.192;5.722;2022-12-17T23:44:53;3.70;;;2.42;;
34196;SDS011;36594;45.192;5.722;2022-12-17T23:47:41;2.75;;;2.20;;
34196;SDS011;36594;45.192;5.722;2022-12-17T23:50:29;4.03;;;2.30;;
34196;SDS011;36594;45.192;5.722;2022-12-17T23:53:18;3.00;;;2.17;;
34196;SDS011;36594;45.192;5.722;2022-12-17T23:56:08;5.00;;;2.40;;
34196;SDS011;36594;45.192;5.722;2022-12-17T23:59:04;2.72;;;2.30;;
